This is the latest recevied weather packets stored in our database for station/object LRBM. If no packets are shown the sender has not sent any weather packets the latest 10 day(s).
| Time | Temp. | Humidity | Pressure | Rain* | Wind** | Luminosity | Snow |
|---|---|---|---|---|---|---|---|
| 1788165215 | 27.78° C | 40% | 1017 hPa | - | - | - | - |
| 1788164393 | 27.22° C | 42% | 1017 hPa | - | - | - | - |
| 1788163415 | 27.22° C | 42% | 1017 hPa | - | - | - | - |
| 1788162535 | 26.11° C | 42% | 1017 hPa | - | - | - | - |
| 1788161615 | 26.11° C | 42% | 1017 hPa | - | - | - | - |
| 1788160744 | 23.89° C | 50% | 1018 hPa | - | - | - | - |
| 1788159816 | 23.89° C | 50% | 1018 hPa | - | - | - | - |
| 1788158915 | 22.22° C | 53% | 1018 hPa | - | - | - | - |
| 1788158015 | 22.22° C | 53% | 1018 hPa | - | - | - | - |
| 1788157117 | 21.11° C | 57% | 1018 hPa | - | - | - | - |
| 1788156216 | 21.11° C | 57% | 1018 hPa | - | - | - | - |
| 1788155317 | 18.89° C | 64% | 1018 hPa | - | - | - | - |
| 1788154415 | 18.89° C | 64% | 1018 hPa | - | - | - | - |
| 1788153516 | 17.22° C | 73% | 1018 hPa | - | - | - | - |
| 1788152615 | 17.22° C | 73% | 1018 hPa | - | - | - | - |
| 1788151717 | 15° C | 82% | 1018 hPa | - | - | - | - |
| 1788150820 | 15° C | 82% | 1018 hPa | - | - | - | - |
| 1788149916 | 13.89° C | 82% | 1017 hPa | - | - | - | - |
| 1788149015 | 13.89° C | 82% | 1017 hPa | - | - | - | - |
| 1788148115 | 13.89° C | 82% | 1017 hPa | - | - | - | - |
| 1788147216 | 13.89° C | 82% | 1017 hPa | - | - | - | - |
| 1788146316 | 16.11° C | 72% | 1017 hPa | - | - | - | - |
| 1788145416 | 16.11° C | 72% | 1017 hPa | - | - | - | - |
| 1788144515 | 16.11° C | 72% | 1017 hPa | - | - | - | - |
| 1788143623 | 16.11° C | 72% | 1017 hPa | - | - | - | - |
* Rain since midnight (hover to see other rain measurements)
** Current wind speed in m/s (hover to see current wind gust speed)